South Amboy, New Jersey
Current Conditions -  °F | °C
As of 11:15 AM on Friday 28 Nov 2014 (Local Time) from KLDJ Reporting Station
Broken Clouds Broken Clouds  
Wind Chill:   Ceiling: 3900
Heat Index:   Visibility: 10mi
Dew Point: -4°   Wind: 9mph
Humidity: 52%   Direction: 310°NW
Pressure: 30.21"   Gusts: 16mph
Location:  40.48°N, 74.28°W
Report Text: KLDJ 281615Z AUTO 31008G14KT 290V350 10SM BKN039 05/M04 A3021 RMK AO2 T00501041
Loading
Personal Weather Stations






























Interactive Weather Map New forecast layout! Learn more

10-Day Weather Forecast

Advertisements
Track Severe Weather on mobile